Portada
METAR-TAF:

METAR-TAF

Aeropuertos :

Champaign / Urbana, Illinois, Estados Unidos

latitud: 40-01-56N, longitud: 088-16-24W, altitud: 229 m

Observación

El informe se hizo hace 10 minutos, a las 00:53 UTC
Viento 7 kt del noroeste
Temperatura -1°C
Humedad 86%
Presión 1028 hPa
Visibilidad: 16.1 km
Cielo despejado

METAR: KCMI 190053Z 32007KT 10SM CLR M01/M03 A3035 RMK AO2 SLP284 T10061033

Hora: 19:03 (01:03 UTC)

Pronóstico

El informe se hizo hace 1 hora y 42 minutos, a las 23:21 UTC
Pronóstico válido del 19 a las 00 UTC al 19 a las 24 UTC
Viento 10 kt del noroeste
Visibilidad: 10 km
Escasas nubes a una altura de 25000 ft
A partir de las 19 a las 0800 UTC
Viento 6 kt del norte
Visibilidad: 10 km
Escasas nubes a una altura de 25000 ft
A partir de las 19 a las 1600 UTC
Viento 9 kt del norte
Visibilidad: 10 km
Escasas nubes a una altura de 25000 ft

TAF: KCMI 182321Z 1900/1924 32010KT P6SM FEW250 FM190800 35006KT P6SM FEW250 FM191600 01009KT P6SM FEW250

Observaciones y pronósticos meteorológicos de más de 4000 aeropuertos (mensajes METAR y TAF).

Los puntos amarillos y rojos representan las estaciones disponibles.

Ponga el ratón en el punto deseado para ver el nombre de la estación.

Haga clic para ver las observaciones y los pronósticos meteorológicos.

Para cambiar el mapa : haga clic en los botones verdes con una cruz de color negro para hacer un zoom, en el botón verde con un guión para alejar o en las flechas verdes para mapas adyacentes.


METAR-TAF: